createdAt,value
2023-01-12T00:00:36.326Z,7.80
2023-01-12T00:03:03.617Z,8.80
2023-01-12T00:05:30.354Z,8.60
2023-01-12T00:07:57.196Z,7.60
2023-01-12T00:10:23.941Z,7.50
2023-01-12T00:12:50.885Z,7.00
2023-01-12T00:15:37.791Z,6.70
2023-01-12T00:18:04.638Z,6.00
2023-01-12T00:20:31.372Z,6.00
2023-01-12T00:22:58.318Z,6.60
2023-01-12T00:25:25.262Z,7.50
2023-01-12T00:27:52.003Z,6.30
2023-01-12T00:30:18.949Z,6.50
2023-01-12T00:32:45.898Z,7.10
2023-01-12T00:35:12.632Z,6.50
2023-01-12T00:37:39.472Z,6.70
2023-01-12T00:40:09.505Z,5.80
2023-01-12T00:42:55.098Z,5.40
2023-01-12T00:45:22.423Z,6.80
2023-01-12T00:47:49.584Z,6.30
2023-01-12T00:50:19.272Z,6.80
2023-01-12T00:52:46.425Z,6.70
2023-01-12T00:55:13.703Z,7.00
2023-01-12T00:57:40.724Z,6.30
2023-01-12T01:00:08.513Z,6.20
2023-01-12T01:02:35.373Z,5.10
2023-01-12T01:05:02.578Z,5.70
2023-01-12T01:07:29.533Z,6.10
2023-01-12T01:09:56.581Z,6.10
2023-01-12T01:12:23.519Z,6.70
2023-01-12T01:14:52.973Z,8.00
2023-01-12T01:17:20.393Z,6.70
2023-01-12T01:19:47.930Z,6.80
2023-01-12T01:22:14.796Z,5.80
2023-01-12T01:24:41.815Z,6.10
2023-01-12T01:27:08.865Z,5.10
2023-01-12T01:29:36.213Z,5.90
2023-01-12T01:32:04.108Z,6.40
2023-01-12T01:34:31.439Z,6.50
2023-01-12T01:37:00.027Z,6.90
2023-01-12T01:39:27.076Z,6.20
2023-01-12T01:41:54.013Z,6.70
2023-01-12T01:44:29.944Z,6.20
2023-01-12T01:47:06.546Z,6.00
2023-01-12T01:49:53.659Z,5.30
2023-01-12T01:52:36.167Z,5.90
2023-01-12T01:57:43.263Z,5.50
2023-01-12T02:00:10.921Z,6.20
2023-01-12T02:02:38.709Z,6.10
2023-01-12T02:05:06.243Z,7.20
2023-01-12T02:07:38.001Z,6.10
2023-01-12T02:10:05.469Z,6.20
2023-01-12T02:12:51.245Z,6.50
2023-01-12T02:15:36.937Z,6.40
2023-01-12T02:18:15.952Z,5.60
2023-01-12T02:21:01.343Z,6.30
2023-01-12T02:23:38.207Z,6.00
2023-01-12T02:26:28.521Z,6.80
2023-01-12T02:29:23.093Z,7.30
2023-01-12T02:32:06.831Z,6.80
2023-01-12T02:34:51.387Z,7.10
2023-01-12T02:37:28.164Z,6.40
2023-01-12T02:39:59.416Z,5.60
2023-01-12T02:42:41.948Z,6.50
2023-01-12T02:45:21.556Z,6.10
2023-01-12T02:48:04.912Z,7.50
2023-01-12T02:50:49.581Z,7.20
2023-01-12T02:53:30.622Z,7.30
2023-01-12T02:56:02.589Z,6.90
2023-01-12T02:58:30.546Z,7.20
2023-01-12T03:00:59.670Z,7.40
2023-01-12T03:03:26.894Z,6.50
2023-01-12T03:05:56.293Z,6.40
2023-01-12T03:08:25.268Z,6.30
2023-01-12T03:11:04.314Z,6.40
2023-01-12T03:13:33.409Z,7.40
2023-01-12T03:16:00.255Z,7.20
2023-01-12T03:18:33.339Z,7.20
2023-01-12T03:21:04.483Z,6.70
2023-01-12T03:24:14.877Z,6.50
2023-01-12T03:26:50.196Z,7.70
2023-01-12T03:29:46.727Z,8.40
2023-01-12T03:32:13.986Z,8.30
2023-01-12T03:34:40.825Z,7.30
2023-01-12T03:37:16.838Z,7.70
2023-01-12T03:40:06.716Z,7.40
2023-01-12T03:42:49.165Z,7.80
2023-01-12T03:45:34.847Z,8.60
2023-01-12T03:48:16.738Z,7.50
2023-01-12T03:51:14.756Z,7.70
2023-01-12T03:53:41.757Z,7.40
2023-01-12T03:56:09.313Z,7.20
2023-01-12T03:58:36.057Z,7.00
2023-01-12T04:01:03.697Z,7.40
2023-01-12T04:03:31.125Z,6.40
2023-01-12T04:05:58.012Z,6.40
2023-01-12T04:08:25.087Z,5.70
2023-01-12T04:10:52.003Z,6.10
2023-01-12T04:13:18.856Z,7.10
2023-01-12T04:15:46.919Z,7.00
2023-01-12T04:18:14.375Z,6.70
2023-01-12T04:20:41.417Z,6.90
2023-01-12T04:23:08.261Z,6.90
2023-01-12T04:25:36.029Z,7.00
2023-01-12T04:28:03.372Z,6.20
2023-01-12T04:30:31.959Z,5.90
2023-01-12T04:33:00.150Z,7.00
2023-01-12T04:35:27.209Z,7.30
2023-01-12T04:37:54.245Z,6.20
2023-01-12T04:40:21.065Z,7.10
2023-01-12T04:43:00.747Z,7.20
2023-01-12T04:45:28.681Z,6.80
2023-01-12T04:47:55.420Z,6.90
2023-01-12T04:50:22.368Z,7.30
2023-01-12T04:52:49.307Z,6.40
2023-01-12T04:55:16.355Z,7.70
2023-01-12T04:57:43.603Z,7.60
2023-01-12T05:00:11.280Z,8.00
2023-01-12T05:02:38.103Z,7.70
2023-01-12T05:05:06.379Z,6.60
2023-01-12T05:07:57.901Z,7.20
2023-01-12T05:10:24.751Z,7.60
2023-01-12T05:12:51.487Z,7.70
2023-01-12T05:15:18.560Z,7.30
2023-01-12T05:17:45.676Z,8.20
2023-01-12T05:20:12.726Z,7.80
2023-01-12T05:22:39.870Z,6.20
2023-01-12T05:25:09.887Z,6.70
2023-01-12T05:27:36.730Z,7.30
2023-01-12T05:30:04.288Z,7.40
2023-01-12T05:32:40.707Z,7.50
2023-01-12T05:35:08.213Z,8.10
2023-01-12T05:37:35.055Z,7.60
2023-01-12T05:40:02.117Z,6.70
2023-01-12T05:42:48.205Z,6.60
2023-01-12T05:45:15.138Z,7.10
2023-01-12T05:47:42.012Z,8.30
2023-01-12T05:50:09.640Z,7.40
2023-01-12T05:52:36.616Z,7.70
2023-01-12T05:55:04.354Z,7.40
2023-01-12T05:57:31.292Z,6.40
2023-01-12T05:59:58.236Z,7.10
2023-01-12T06:02:25.410Z,7.30
2023-01-12T06:04:52.506Z,7.30
2023-01-12T06:07:19.664Z,7.40
2023-01-12T06:09:47.044Z,7.90
2023-01-12T06:12:34.500Z,7.10
2023-01-12T06:15:01.514Z,6.60
2023-01-12T06:17:30.099Z,7.90
2023-01-12T06:19:56.936Z,7.30
2023-01-12T06:22:24.385Z,7.70
2023-01-12T06:24:51.233Z,7.60
2023-01-12T06:27:18.296Z,6.70
2023-01-12T06:29:45.029Z,7.80
2023-01-12T06:32:11.963Z,8.20
2023-01-12T06:34:38.741Z,8.30
2023-01-12T06:37:06.881Z,8.00
2023-01-12T06:39:34.339Z,6.80
2023-01-12T06:42:19.912Z,6.40
2023-01-12T06:44:48.850Z,7.50
2023-01-12T06:47:16.152Z,7.70
2023-01-12T06:49:42.905Z,8.30
2023-01-12T06:52:09.735Z,8.60
2023-01-12T06:54:36.703Z,8.20
2023-01-12T06:57:03.530Z,7.80
2023-01-12T06:59:30.817Z,7.50
2023-01-12T07:01:58.058Z,8.70
2023-01-12T07:04:25.228Z,9.30
2023-01-12T07:06:55.603Z,10.20
2023-01-12T07:09:22.651Z,9.10
2023-01-12T07:11:50.312Z,8.60
2023-01-12T07:14:17.142Z,9.80
2023-01-12T07:16:44.011Z,10.80
2023-01-12T07:19:11.455Z,11.60
2023-01-12T07:21:38.487Z,10.40
2023-01-12T07:24:05.943Z,10.60
2023-01-12T07:26:33.095Z,9.90
2023-01-12T07:29:00.144Z,10.70
2023-01-12T07:31:27.573Z,11.50
2023-01-12T07:33:57.313Z,10.90
2023-01-12T07:36:25.375Z,14.30
2023-01-12T07:38:52.142Z,13.00
2023-01-12T07:41:41.708Z,12.00
2023-01-12T07:44:09.362Z,14.40
2023-01-12T07:46:37.103Z,14.00
2023-01-12T07:49:04.065Z,14.90
2023-01-12T07:51:33.253Z,12.80
2023-01-12T07:54:00.334Z,14.10
2023-01-12T07:56:27.253Z,12.60
2023-01-12T07:58:54.016Z,14.80
2023-01-12T08:01:21.606Z,16.30
2023-01-12T08:03:48.998Z,15.10
2023-01-12T08:06:17.171Z,16.50
2023-01-12T08:08:44.323Z,15.90
2023-01-12T08:11:11.673Z,15.60
2023-01-12T08:13:38.823Z,14.60
2023-01-12T08:16:14.262Z,16.20
2023-01-12T08:18:57.549Z,19.00
2023-01-12T08:21:25.998Z,17.00
2023-01-12T08:23:54.367Z,18.30
2023-01-12T08:26:24.366Z,17.10
2023-01-12T08:28:54.425Z,15.50
2023-01-12T08:31:21.169Z,16.30
2023-01-12T08:33:48.278Z,18.90
2023-01-12T08:36:15.859Z,18.00
2023-01-12T08:38:43.208Z,20.50
2023-01-12T08:41:28.873Z,19.80
2023-01-12T08:44:01.659Z,18.80
2023-01-12T08:46:39.128Z,16.10
2023-01-12T08:49:10.896Z,17.60
2023-01-12T08:51:40.706Z,19.40
2023-01-12T08:54:08.984Z,20.10
2023-01-12T08:56:35.752Z,19.50
2023-01-12T08:59:02.971Z,16.10
2023-01-12T09:01:31.824Z,16.60
2023-01-12T09:03:59.112Z,16.60
2023-01-12T09:06:30.257Z,18.00
2023-01-12T09:09:00.986Z,18.90
2023-01-12T09:11:28.671Z,17.90
2023-01-12T09:13:58.184Z,17.40
2023-01-12T09:16:26.361Z,15.90
2023-01-12T09:18:53.071Z,12.90
2023-01-12T09:21:21.464Z,13.30
2023-01-12T09:23:52.295Z,14.20
2023-01-12T09:26:31.005Z,13.80
2023-01-12T09:28:58.966Z,14.00
2023-01-12T09:31:26.739Z,12.30
2023-01-12T09:33:54.186Z,12.20
2023-01-12T09:36:23.191Z,13.90
2023-01-12T09:38:50.335Z,14.20
2023-01-12T09:41:40.141Z,14.20
2023-01-12T09:44:42.751Z,12.60
2023-01-12T09:47:36.158Z,11.90
2023-01-12T09:50:10.765Z,13.10
2023-01-12T09:52:42.178Z,16.50
2023-01-12T09:55:20.040Z,15.20
2023-01-12T09:57:56.397Z,15.90
2023-01-12T10:00:27.735Z,13.80
2023-01-12T10:03:11.119Z,12.50
2023-01-12T10:05:39.956Z,14.20
2023-01-12T10:08:16.715Z,16.00
2023-01-12T10:11:16.343Z,16.30
2023-01-12T10:13:56.595Z,15.30
2023-01-12T10:16:38.876Z,13.90
2023-01-12T10:19:35.660Z,12.80
2023-01-12T10:22:38.966Z,13.00
2023-01-12T10:25:31.088Z,15.10
2023-01-12T10:27:58.957Z,15.60
2023-01-12T10:30:28.134Z,13.50
2023-01-12T10:33:17.580Z,12.40
2023-01-12T10:36:08.210Z,12.40
2023-01-12T10:38:40.167Z,14.40
2023-01-12T10:41:10.195Z,16.40
2023-01-12T10:43:38.058Z,16.70
2023-01-12T10:46:11.214Z,17.80
2023-01-12T10:48:39.822Z,14.90
2023-01-12T10:51:08.330Z,13.60
2023-01-12T10:53:42.352Z,13.90
2023-01-12T10:56:35.366Z,16.20
2023-01-12T10:59:04.869Z,17.70
2023-01-12T11:01:59.642Z,17.20
2023-01-12T11:04:27.774Z,14.80
2023-01-12T11:06:55.480Z,13.70
2023-01-12T11:09:26.848Z,14.00
2023-01-12T11:12:00.604Z,16.60
2023-01-12T11:14:39.503Z,17.30
2023-01-12T11:17:49.729Z,17.90
2023-01-12T11:20:37.716Z,16.40
2023-01-12T11:23:35.342Z,15.70
2023-01-12T11:26:02.942Z,16.40
2023-01-12T11:28:39.841Z,17.70
2023-01-12T11:31:12.049Z,19.60
2023-01-12T11:33:50.249Z,19.10
2023-01-12T11:36:39.538Z,18.30
2023-01-12T11:39:08.113Z,16.10
2023-01-12T11:41:38.762Z,18.80
2023-01-12T11:44:12.949Z,20.30
2023-01-12T11:46:44.087Z,18.80
2023-01-12T11:49:23.739Z,21.00
2023-01-12T11:51:53.236Z,17.50
2023-01-12T11:54:20.087Z,18.00
2023-01-12T11:57:13.246Z,18.70
2023-01-12T12:00:03.127Z,21.00
2023-01-12T12:03:02.517Z,23.80
2023-01-12T12:05:52.628Z,22.60
2023-01-12T12:08:36.469Z,18.70
2023-01-12T12:11:10.052Z,20.40
2023-01-12T12:13:52.559Z,25.80
2023-01-12T12:16:45.713Z,26.50
2023-01-12T12:19:19.121Z,27.10
2023-01-12T12:21:47.283Z,26.00
2023-01-12T12:25:03.276Z,24.70
2023-01-12T12:27:33.225Z,25.80
2023-01-12T12:30:08.941Z,27.00
2023-01-12T12:32:54.448Z,29.40
2023-01-12T12:35:31.109Z,29.70
2023-01-12T12:38:05.034Z,26.60
2023-01-12T12:40:31.840Z,25.20
2023-01-12T12:43:35.147Z,24.70
2023-01-12T12:46:17.228Z,28.70
2023-01-12T12:49:08.241Z,32.20
2023-01-12T12:51:35.185Z,29.70
2023-01-12T12:54:05.957Z,27.40
2023-01-12T12:56:35.836Z,25.60
2023-01-12T12:59:03.186Z,29.00
2023-01-12T13:01:30.286Z,28.70
2023-01-12T13:03:58.543Z,27.10
2023-01-12T13:06:34.592Z,28.40
2023-01-12T13:09:02.326Z,23.70
2023-01-12T13:11:51.451Z,22.90
2023-01-12T13:14:20.395Z,27.60
2023-01-12T13:16:51.532Z,28.10
2023-01-12T13:19:37.618Z,27.90
2023-01-12T13:22:16.967Z,27.60
2023-01-12T13:24:44.307Z,24.70
2023-01-12T13:27:55.052Z,25.20
2023-01-12T13:30:28.198Z,27.60
2023-01-12T13:33:17.028Z,28.10
2023-01-12T13:35:44.584Z,26.60
2023-01-12T13:38:20.739Z,25.70
2023-01-12T13:40:55.973Z,23.70
2023-01-12T13:43:34.013Z,27.00
2023-01-12T13:46:03.890Z,28.50
2023-01-12T13:48:34.015Z,29.80
2023-01-12T13:51:05.212Z,29.40
2023-01-12T13:53:32.316Z,26.90
2023-01-12T13:56:04.036Z,24.80
2023-01-12T13:58:43.704Z,27.10
2023-01-12T14:01:25.922Z,28.20
2023-01-12T14:04:20.044Z,29.60
2023-01-12T14:06:56.351Z,26.30
2023-01-12T14:09:51.467Z,25.10
2023-01-12T14:12:38.784Z,25.70
2023-01-12T14:15:51.671Z,29.90
2023-01-12T14:18:21.154Z,29.70
2023-01-12T14:20:51.863Z,29.10
2023-01-12T14:23:33.219Z,25.80
2023-01-12T14:26:13.070Z,26.60
2023-01-12T14:28:42.517Z,27.90
2023-01-12T14:31:18.322Z,29.50
2023-01-12T14:33:51.107Z,27.90
2023-01-12T14:36:22.047Z,31.50
2023-01-12T14:38:48.777Z,28.60
2023-01-12T14:41:45.225Z,25.90
2023-01-12T14:44:41.553Z,24.90
2023-01-12T14:47:08.798Z,24.40
2023-01-12T14:49:38.322Z,25.10
2023-01-12T14:52:32.703Z,21.60
2023-01-12T14:55:19.004Z,15.60
2023-01-12T14:57:50.646Z,16.50
2023-01-12T15:00:22.568Z,19.80
2023-01-12T15:02:54.255Z,19.80
2023-01-12T15:05:25.143Z,21.00
2023-01-12T15:08:30.229Z,15.50
2023-01-12T15:10:58.336Z,13.60
2023-01-12T15:13:33.199Z,13.60
2023-01-12T15:16:19.091Z,13.20
2023-01-12T15:19:04.909Z,13.50
2023-01-12T15:21:52.551Z,11.70
2023-01-12T15:24:46.002Z,11.30
2023-01-12T15:27:14.900Z,10.70
2023-01-12T15:29:41.734Z,11.20
2023-01-12T15:32:46.996Z,13.00
2023-01-12T15:35:16.382Z,13.40
2023-01-12T15:37:43.530Z,13.20
2023-01-12T15:40:13.445Z,11.70
2023-01-12T15:42:40.602Z,11.50
2023-01-12T15:45:15.831Z,12.60
2023-01-12T15:47:42.971Z,11.80
2023-01-12T15:50:10.429Z,12.60
2023-01-12T15:52:37.989Z,13.00
2023-01-12T15:55:05.230Z,12.50
2023-01-12T15:57:32.087Z,12.80
2023-01-12T15:59:59.761Z,12.10
2023-01-12T16:02:30.480Z,11.60
2023-01-12T16:04:58.303Z,13.10
2023-01-12T16:07:25.191Z,12.40
2023-01-12T16:09:52.235Z,12.10
2023-01-12T16:12:19.177Z,9.60
2023-01-12T16:14:46.223Z,10.00
2023-01-12T16:17:12.960Z,10.40
2023-01-12T16:19:43.381Z,11.70
2023-01-12T16:22:14.659Z,9.80
2023-01-12T16:24:43.530Z,9.90
2023-01-12T16:27:10.630Z,8.90
2023-01-12T16:29:37.441Z,8.00
2023-01-12T16:32:04.385Z,8.70
2023-01-12T16:34:31.414Z,9.30
2023-01-12T16:37:00.583Z,9.60
2023-01-12T16:39:31.122Z,9.70
2023-01-12T16:42:03.292Z,8.00
2023-01-12T16:44:37.315Z,8.10
2023-01-12T16:47:07.826Z,8.60
2023-01-12T16:49:35.911Z,9.20
2023-01-12T16:52:03.764Z,9.60
2023-01-12T16:54:30.729Z,8.30
2023-01-12T16:56:58.371Z,8.60
2023-01-12T16:59:26.391Z,8.20
2023-01-12T17:01:53.291Z,8.70
2023-01-12T17:04:20.628Z,9.30
2023-01-12T17:06:47.881Z,8.30
2023-01-12T17:09:15.439Z,9.40
2023-01-12T17:11:43.751Z,8.10
2023-01-12T17:14:24.215Z,8.60
2023-01-12T17:16:52.964Z,9.20
2023-01-12T17:19:20.015Z,10.20
2023-01-12T17:21:47.517Z,9.50
2023-01-12T17:24:17.998Z,12.10
2023-01-12T17:26:45.757Z,11.00
2023-01-12T17:29:13.126Z,10.50
2023-01-12T17:31:41.905Z,9.50
2023-01-12T17:34:10.895Z,11.50
2023-01-12T17:36:38.589Z,11.40
2023-01-12T17:39:05.597Z,12.90
2023-01-12T17:41:51.083Z,11.70
2023-01-12T17:44:18.230Z,10.40
2023-01-12T17:46:45.287Z,11.50
2023-01-12T17:49:12.730Z,11.70
2023-01-12T17:51:39.997Z,12.80
2023-01-12T17:54:10.522Z,10.60
2023-01-12T17:56:37.962Z,9.90
2023-01-12T17:59:05.318Z,9.90
2023-01-12T18:01:34.322Z,10.90
2023-01-12T18:04:01.265Z,10.40
2023-01-12T18:06:28.705Z,9.90
2023-01-12T18:08:55.965Z,10.00
2023-01-12T18:11:59.710Z,10.10
2023-01-12T18:14:26.592Z,8.70
2023-01-12T18:16:53.384Z,8.00
2023-01-12T18:19:20.704Z,8.50
2023-01-12T18:21:49.191Z,8.20
2023-01-12T18:24:15.925Z,8.90
2023-01-12T18:26:43.096Z,9.30
2023-01-12T18:29:10.119Z,9.50
2023-01-12T18:31:37.196Z,9.90
2023-01-12T18:34:04.944Z,8.70
2023-01-12T18:36:34.023Z,7.30
2023-01-12T18:39:01.179Z,8.60
2023-01-12T18:41:46.457Z,8.50
2023-01-12T18:44:13.284Z,9.50
2023-01-12T18:47:00.402Z,9.40
2023-01-12T18:49:31.350Z,8.70
2023-01-12T18:52:17.757Z,7.50
2023-01-12T18:54:47.561Z,7.50
2023-01-12T18:57:17.181Z,7.20
2023-01-12T18:59:45.339Z,9.00
2023-01-12T19:02:12.514Z,9.40
2023-01-12T19:04:42.192Z,7.80
2023-01-12T19:07:11.902Z,7.50
2023-01-12T19:09:39.153Z,8.40
2023-01-12T19:12:06.321Z,7.60
2023-01-12T19:14:52.087Z,9.30
2023-01-12T19:17:32.276Z,9.00
2023-01-12T19:20:05.538Z,9.00
2023-01-12T19:22:51.439Z,7.30
2023-01-12T19:25:39.979Z,7.80
2023-01-12T19:28:29.754Z,8.50
2023-01-12T19:31:00.813Z,8.20
2023-01-12T19:33:28.355Z,8.70
2023-01-12T19:35:55.190Z,8.00
2023-01-12T19:38:22.031Z,8.40
2023-01-12T19:40:48.822Z,8.20
2023-01-12T19:43:19.853Z,8.20
2023-01-12T19:45:48.191Z,7.60
2023-01-12T19:48:16.263Z,8.80
2023-01-12T19:50:43.720Z,7.40
2023-01-12T19:53:15.698Z,7.90
2023-01-12T19:55:43.158Z,8.00
2023-01-12T19:58:10.079Z,8.20
2023-01-12T20:00:42.757Z,8.60
2023-01-12T20:05:38.488Z,9.00
2023-01-12T20:08:06.157Z,8.00
2023-01-12T20:10:34.425Z,8.20
2023-01-12T20:13:01.285Z,7.20
2023-01-12T20:15:28.725Z,8.50
2023-01-12T20:17:59.556Z,8.60
2023-01-12T20:20:27.015Z,8.40
2023-01-12T20:22:54.369Z,8.90
2023-01-12T20:25:21.519Z,7.50
2023-01-12T20:27:51.430Z,10.10
2023-01-12T20:30:31.904Z,8.60
2023-01-12T20:33:03.242Z,9.60
2023-01-12T20:35:34.382Z,8.80
2023-01-12T20:38:02.694Z,9.30
2023-01-12T20:40:29.605Z,8.60
2023-01-12T20:42:56.441Z,8.90
2023-01-12T20:45:23.204Z,9.50
2023-01-12T20:47:50.044Z,8.90
2023-01-12T20:50:18.433Z,10.00
2023-01-12T20:52:47.496Z,9.50
2023-01-12T20:55:14.849Z,8.50
2023-01-12T20:57:41.796Z,9.40
2023-01-12T21:00:09.653Z,8.70
2023-01-12T21:02:36.820Z,8.80
2023-01-12T21:05:05.599Z,10.10
2023-01-12T21:07:32.853Z,9.40
2023-01-12T21:09:59.689Z,8.80
2023-01-12T21:12:27.788Z,8.40
2023-01-12T21:14:55.218Z,9.30
2023-01-12T21:17:24.004Z,9.00
2023-01-12T21:19:51.150Z,9.40
2023-01-12T21:22:19.143Z,9.10
2023-01-12T21:24:47.002Z,8.50
2023-01-12T21:27:14.036Z,9.00
2023-01-12T21:29:41.107Z,7.60
2023-01-12T21:32:07.837Z,7.50
2023-01-12T21:34:35.375Z,9.60
2023-01-12T21:37:02.113Z,9.10
2023-01-12T21:39:28.931Z,9.00
2023-01-12T21:42:14.745Z,9.70
2023-01-12T21:44:41.537Z,9.10
2023-01-12T21:47:08.420Z,9.10
2023-01-12T21:49:36.932Z,7.80
2023-01-12T21:52:03.949Z,10.00
2023-01-12T21:54:31.509Z,9.50
2023-01-12T21:57:00.910Z,9.90
2023-01-12T21:59:27.752Z,9.90
2023-01-12T22:01:54.660Z,9.90
2023-01-12T22:04:21.989Z,8.50
2023-01-12T22:06:52.086Z,8.90
2023-01-12T22:09:19.111Z,8.50
2023-01-12T22:11:45.878Z,9.70
2023-01-12T22:14:14.947Z,9.30
2023-01-12T22:16:42.033Z,9.30
2023-01-12T22:19:08.851Z,9.50
2023-01-12T22:21:35.888Z,9.40
2023-01-12T22:24:03.845Z,9.00
2023-01-12T22:26:32.226Z,9.20
2023-01-12T22:28:59.375Z,9.40
2023-01-12T22:31:26.266Z,10.20
2023-01-12T22:34:03.408Z,9.70
2023-01-12T22:36:32.242Z,9.90
2023-01-12T22:39:00.875Z,10.30
2023-01-12T22:41:27.751Z,9.20
2023-01-12T22:43:54.664Z,9.00
2023-01-12T22:46:25.508Z,10.30
2023-01-12T22:48:54.911Z,10.50
2023-01-12T22:51:24.457Z,10.90
2023-01-12T22:53:52.168Z,10.20
2023-01-12T22:56:19.003Z,10.20
2023-01-12T22:58:49.757Z,8.40
2023-01-12T23:01:17.435Z,9.20
2023-01-12T23:03:44.872Z,9.50
2023-01-12T23:06:14.773Z,9.00
2023-01-12T23:08:42.549Z,10.90
2023-01-12T23:11:14.832Z,11.30
2023-01-12T23:16:10.370Z,8.60
2023-01-12T23:18:38.527Z,9.90
2023-01-12T23:21:16.211Z,10.00
2023-01-12T23:23:48.077Z,10.00
2023-01-12T23:26:16.765Z,10.60
2023-01-12T23:28:48.816Z,9.90
2023-01-12T23:31:23.972Z,10.80
2023-01-12T23:33:51.606Z,9.20
2023-01-12T23:36:23.260Z,9.50
2023-01-12T23:38:58.298Z,11.20
2023-01-12T23:41:26.262Z,11.10
2023-01-12T23:43:55.676Z,11.30
2023-01-12T23:46:23.589Z,11.00
2023-01-12T23:48:51.536Z,10.70
2023-01-12T23:51:18.548Z,10.90
2023-01-12T23:53:45.696Z,10.50
2023-01-12T23:56:14.174Z,9.90
2023-01-12T23:58:41.422Z,11.00
